sensor_id;sensor_type;location;lat;lon;timestamp;pressure;altitude;pressure_sealevel;temperature;humidity
46846;BME280;33947;46.804;134.252;2022-11-11T00:03:11;102189.00;;;-2.11;52.55
46846;BME280;33947;46.804;134.252;2022-11-11T00:06:33;102207.31;;;-2.10;52.47
46846;BME280;33947;46.804;134.252;2022-11-11T00:09:57;102187.13;;;-1.97;52.07
46846;BME280;33947;46.804;134.252;2022-11-11T00:13:19;102180.63;;;-1.71;52.16
46846;BME280;33947;46.804;134.252;2022-11-11T00:16:43;102182.47;;;-1.86;52.64
46846;BME280;33947;46.804;134.252;2022-11-11T00:20:24;102181.53;;;-1.52;52.24
46846;BME280;33947;46.804;134.252;2022-11-11T00:24:23;102186.69;;;-1.36;51.20
46846;BME280;33947;46.804;134.252;2022-11-11T00:28:06;102163.91;;;-0.25;50.78
46846;BME280;33947;46.804;134.252;2022-11-11T00:31:29;102154.22;;;0.13;48.92
46846;BME280;33947;46.804;134.252;2022-11-11T00:34:55;102172.16;;;-0.16;48.91
46846;BME280;33947;46.804;134.252;2022-11-11T00:38:37;102158.47;;;-0.30;49.37
46846;BME280;33947;46.804;134.252;2022-11-11T00:42:10;102165.56;;;-0.47;48.26
46846;BME280;33947;46.804;134.252;2022-11-11T00:45:33;102148.34;;;-0.43;47.69
46846;BME280;33947;46.804;134.252;2022-11-11T00:48:55;102086.22;;;-0.70;48.53
46846;BME280;33947;46.804;134.252;2022-11-11T00:52:36;102096.59;;;-0.32;47.81
46846;BME280;33947;46.804;134.252;2022-11-11T00:55:59;102115.16;;;-0.05;46.93
46846;BME280;33947;46.804;134.252;2022-11-11T00:59:22;102125.84;;;0.23;47.26
46846;BME280;33947;46.804;134.252;2022-11-11T01:02:45;102112.78;;;-0.20;47.39
46846;BME280;33947;46.804;134.252;2022-11-11T01:06:10;102110.66;;;-0.28;46.38
46846;BME280;33947;46.804;134.252;2022-11-11T01:09:33;102099.84;;;-0.17;47.05
46846;BME280;33947;46.804;134.252;2022-11-11T01:12:56;102111.78;;;0.19;45.70
46846;BME280;33947;46.804;134.252;2022-11-11T01:16:33;102102.13;;;0.18;46.15
46846;BME280;33947;46.804;134.252;2022-11-11T01:19:55;102096.75;;;0.57;45.25
46846;BME280;33947;46.804;134.252;2022-11-11T01:23:18;102100.91;;;0.75;44.74
46846;BME280;33947;46.804;134.252;2022-11-11T01:26:41;102094.47;;;0.67;44.77
46846;BME280;33947;46.804;134.252;2022-11-11T01:30:04;102079.44;;;0.84;44.05
46846;BME280;33947;46.804;134.252;2022-11-11T01:33:28;102075.34;;;0.68;44.20
46846;BME280;33947;46.804;134.252;2022-11-11T01:36:50;102081.06;;;0.36;43.67
46846;BME280;33947;46.804;134.252;2022-11-11T01:40:13;102088.38;;;0.22;43.74
46846;BME280;33947;46.804;134.252;2022-11-11T01:43:36;102069.25;;;0.46;43.33
46846;BME280;33947;46.804;134.252;2022-11-11T01:47:01;102036.59;;;0.57;42.17
46846;BME280;33947;46.804;134.252;2022-11-11T01:50:33;102056.44;;;0.75;42.19
46846;BME280;33947;46.804;134.252;2022-11-11T01:53:59;102055.25;;;0.67;42.55
46846;BME280;33947;46.804;134.252;2022-11-11T01:57:25;102043.28;;;0.74;42.61
46846;BME280;33947;46.804;134.252;2022-11-11T02:00:50;102031.00;;;0.95;41.01
46846;BME280;33947;46.804;134.252;2022-11-11T02:04:13;102018.66;;;0.91;41.15
46846;BME280;33947;46.804;134.252;2022-11-11T02:07:58;102008.00;;;0.86;41.19
46846;BME280;33947;46.804;134.252;2022-11-11T02:11:24;101990.88;;;1.19;40.14
46846;BME280;33947;46.804;134.252;2022-11-11T02:15:07;101979.19;;;1.35;39.56
46846;BME280;33947;46.804;134.252;2022-11-11T02:18:31;101994.47;;;1.49;39.27
46846;BME280;33947;46.804;134.252;2022-11-11T02:21:59;101986.25;;;1.38;39.93
46846;BME280;33947;46.804;134.252;2022-11-11T02:25:24;101977.16;;;1.26;39.34
46846;BME280;33947;46.804;134.252;2022-11-11T02:28:50;101967.97;;;1.13;39.29
46846;BME280;33947;46.804;134.252;2022-11-11T02:32:14;101954.25;;;1.21;39.67
46846;BME280;33947;46.804;134.252;2022-11-11T02:35:42;101963.34;;;1.32;39.43
46846;BME280;33947;46.804;134.252;2022-11-11T02:39:05;101934.88;;;1.15;39.84
46846;BME280;33947;46.804;134.252;2022-11-11T02:42:29;101923.69;;;1.46;39.71
46846;BME280;33947;46.804;134.252;2022-11-11T02:45:53;101925.56;;;1.50;39.43
46846;BME280;33947;46.804;134.252;2022-11-11T02:49:16;101925.34;;;1.71;38.47
46846;BME280;33947;46.804;134.252;2022-11-11T02:52:39;101895.94;;;1.80;38.85
46846;BME280;33947;46.804;134.252;2022-11-11T02:56:03;101904.88;;;1.86;39.48
46846;BME280;33947;46.804;134.252;2022-11-11T02:59:26;101896.22;;;2.18;38.76
46846;BME280;33947;46.804;134.252;2022-11-11T03:02:49;101881.44;;;2.22;37.87
46846;BME280;33947;46.804;134.252;2022-11-11T03:06:12;101874.56;;;2.25;38.79
46846;BME280;33947;46.804;134.252;2022-11-11T03:09:34;101878.47;;;2.40;37.17
46846;BME280;33947;46.804;134.252;2022-11-11T03:12:57;101870.28;;;2.59;38.43
46846;BME280;33947;46.804;134.252;2022-11-11T03:16:20;101865.25;;;2.67;37.63
46846;BME280;33947;46.804;134.252;2022-11-11T03:20:01;101832.47;;;2.51;37.99
46846;BME280;33947;46.804;134.252;2022-11-11T03:23:43;101844.16;;;2.98;37.33
46846;BME280;33947;46.804;134.252;2022-11-11T03:27:06;101832.00;;;3.01;37.61
46846;BME280;33947;46.804;134.252;2022-11-11T03:30:28;101843.34;;;3.00;37.69
46846;BME280;33947;46.804;134.252;2022-11-11T03:33:51;101830.91;;;2.92;37.79
46846;BME280;33947;46.804;134.252;2022-11-11T03:37:14;101795.09;;;2.60;37.68
46846;BME280;33947;46.804;134.252;2022-11-11T03:40:56;101832.25;;;3.12;37.63
46846;BME280;33947;46.804;134.252;2022-11-11T03:44:19;101803.53;;;2.82;37.72
46846;BME280;33947;46.804;134.252;2022-11-11T03:47:42;101808.97;;;3.26;37.95
46846;BME280;33947;46.804;134.252;2022-11-11T03:51:05;101800.31;;;3.30;37.42
46846;BME280;33947;46.804;134.252;2022-11-11T03:54:28;101790.56;;;3.25;37.28
46846;BME280;33947;46.804;134.252;2022-11-11T03:57:51;101757.13;;;3.17;37.43
46846;BME280;33947;46.804;134.252;2022-11-11T04:01:14;101720.66;;;2.92;37.25
46846;BME280;33947;46.804;134.252;2022-11-11T04:04:57;101750.78;;;3.08;37.15
46846;BME280;33947;46.804;134.252;2022-11-11T04:09:06;101733.34;;;3.11;36.84
46846;BME280;33947;46.804;134.252;2022-11-11T04:12:48;101716.94;;;3.22;37.23
46846;BME280;33947;46.804;134.252;2022-11-11T04:16:31;101716.19;;;3.27;36.64
46846;BME280;33947;46.804;134.252;2022-11-11T04:19:54;101715.00;;;3.53;35.96
46846;BME280;33947;46.804;134.252;2022-11-11T04:23:36;101693.69;;;3.39;35.92
46846;BME280;33947;46.804;134.252;2022-11-11T04:27:00;101674.28;;;3.32;35.16
46846;BME280;33947;46.804;134.252;2022-11-11T04:30:24;101672.75;;;3.42;35.11
46846;BME280;33947;46.804;134.252;2022-11-11T04:33:47;101683.50;;;3.54;34.61
46846;BME280;33947;46.804;134.252;2022-11-11T04:37:10;101670.31;;;3.51;33.70
46846;BME280;33947;46.804;134.252;2022-11-11T04:40:33;101670.44;;;3.57;32.87
46846;BME280;33947;46.804;134.252;2022-11-11T04:44:14;101664.53;;;3.69;31.97
46846;BME280;33947;46.804;134.252;2022-11-11T04:48:03;101656.19;;;3.90;30.09
46846;BME280;33947;46.804;134.252;2022-11-11T04:51:26;101637.56;;;3.80;30.14
46846;BME280;33947;46.804;134.252;2022-11-11T04:55:08;101647.38;;;3.88;29.33
46846;BME280;33947;46.804;134.252;2022-11-11T04:58:50;101651.56;;;3.79;28.68
46846;BME280;33947;46.804;134.252;2022-11-11T05:02:33;101625.53;;;3.93;28.67
46846;BME280;33947;46.804;134.252;2022-11-11T05:06:14;101637.84;;;3.95;29.11
46846;BME280;33947;46.804;134.252;2022-11-11T05:09:55;101618.25;;;3.78;28.64
46846;BME280;33947;46.804;134.252;2022-11-11T05:13:18;101608.75;;;3.86;28.78
46846;BME280;33947;46.804;134.252;2022-11-11T05:16:59;101591.38;;;3.94;28.26
46846;BME280;33947;46.804;134.252;2022-11-11T05:20:41;101592.38;;;3.99;28.49
46846;BME280;33947;46.804;134.252;2022-11-11T05:24:22;101596.72;;;3.99;28.79
46846;BME280;33947;46.804;134.252;2022-11-11T05:28:04;101604.56;;;3.96;28.36
46846;BME280;33947;46.804;134.252;2022-11-11T05:31:28;101614.97;;;3.91;28.32
46846;BME280;33947;46.804;134.252;2022-11-11T05:34:52;101600.94;;;3.89;27.73
46846;BME280;33947;46.804;134.252;2022-11-11T05:38:14;101621.91;;;3.86;28.01
46846;BME280;33947;46.804;134.252;2022-11-11T05:41:43;101607.69;;;3.74;28.51
46846;BME280;33947;46.804;134.252;2022-11-11T05:45:07;101593.91;;;3.88;28.29
46846;BME280;33947;46.804;134.252;2022-11-11T05:48:31;101592.09;;;3.84;28.00
46846;BME280;33947;46.804;134.252;2022-11-11T05:51:54;101582.34;;;3.78;28.35
46846;BME280;33947;46.804;134.252;2022-11-11T05:55:17;101565.53;;;3.70;28.19
46846;BME280;33947;46.804;134.252;2022-11-11T05:58:40;101558.69;;;3.78;27.72
46846;BME280;33947;46.804;134.252;2022-11-11T06:02:10;101545.63;;;3.83;27.87
46846;BME280;33947;46.804;134.252;2022-11-11T06:05:35;101498.38;;;3.35;28.26
46846;BME280;33947;46.804;134.252;2022-11-11T06:08:58;101510.94;;;3.52;27.95
46846;BME280;33947;46.804;134.252;2022-11-11T06:12:21;101551.31;;;3.57;28.73
46846;BME280;33947;46.804;134.252;2022-11-11T06:15:44;101551.50;;;3.66;27.76
46846;BME280;33947;46.804;134.252;2022-11-11T06:19:07;101508.34;;;3.55;28.39
46846;BME280;33947;46.804;134.252;2022-11-11T06:22:29;101532.38;;;3.76;28.24
46846;BME280;33947;46.804;134.252;2022-11-11T06:26:11;101527.78;;;3.65;28.00
46846;BME280;33947;46.804;134.252;2022-11-11T06:29:34;101520.69;;;3.59;27.96
46846;BME280;33947;46.804;134.252;2022-11-11T06:32:58;101502.66;;;3.81;27.79
46846;BME280;33947;46.804;134.252;2022-11-11T06:36:21;101477.91;;;3.66;28.06
46846;BME280;33947;46.804;134.252;2022-11-11T06:39:44;101485.94;;;3.75;28.20
46846;BME280;33947;46.804;134.252;2022-11-11T06:43:07;101495.53;;;3.73;28.40
46846;BME280;33947;46.804;134.252;2022-11-11T06:46:31;101494.59;;;3.68;28.20
46846;BME280;33947;46.804;134.252;2022-11-11T06:49:54;101480.50;;;3.63;28.62
46846;BME280;33947;46.804;134.252;2022-11-11T06:53:18;101476.97;;;3.61;28.37
46846;BME280;33947;46.804;134.252;2022-11-11T06:56:46;101462.28;;;3.75;28.53
46846;BME280;33947;46.804;134.252;2022-11-11T07:00:09;101468.31;;;3.70;28.97
46846;BME280;33947;46.804;134.252;2022-11-11T07:03:33;101465.63;;;3.67;29.17
46846;BME280;33947;46.804;134.252;2022-11-11T07:06:56;101447.25;;;3.65;29.16
46846;BME280;33947;46.804;134.252;2022-11-11T07:10:18;101454.22;;;3.65;28.99
46846;BME280;33947;46.804;134.252;2022-11-11T07:13:41;101446.06;;;3.46;29.24
46846;BME280;33947;46.804;134.252;2022-11-11T07:17:04;101433.13;;;3.58;28.92
46846;BME280;33947;46.804;134.252;2022-11-11T07:20:27;101434.59;;;3.42;29.13
46846;BME280;33947;46.804;134.252;2022-11-11T07:23:50;101435.41;;;3.38;29.10
46846;BME280;33947;46.804;134.252;2022-11-11T07:27:14;101448.16;;;3.69;28.83
46846;BME280;33947;46.804;134.252;2022-11-11T07:30:36;101434.75;;;3.52;28.80
46846;BME280;33947;46.804;134.252;2022-11-11T07:33:59;101428.81;;;3.62;29.31
46846;BME280;33947;46.804;134.252;2022-11-11T07:37:22;101421.66;;;3.55;29.31
46846;BME280;33947;46.804;134.252;2022-11-11T07:40:45;101401.50;;;3.54;29.12
46846;BME280;33947;46.804;134.252;2022-11-11T07:44:08;101394.56;;;3.57;29.53
46846;BME280;33947;46.804;134.252;2022-11-11T07:47:31;101397.44;;;3.74;28.86
46846;BME280;33947;46.804;134.252;2022-11-11T07:50:57;101363.25;;;3.71;28.81
46846;BME280;33947;46.804;134.252;2022-11-11T07:54:20;101361.53;;;3.73;28.19
46846;BME280;33947;46.804;134.252;2022-11-11T07:57:43;101351.56;;;3.52;29.01
46846;BME280;33947;46.804;134.252;2022-11-11T08:01:06;101347.88;;;3.39;29.48
46846;BME280;33947;46.804;134.252;2022-11-11T08:04:29;101333.19;;;3.52;28.52
46846;BME280;33947;46.804;134.252;2022-11-11T08:07:52;101343.78;;;3.58;29.34
46846;BME280;33947;46.804;134.252;2022-11-11T08:11:16;101326.03;;;3.42;28.82
46846;BME280;33947;46.804;134.252;2022-11-11T08:14:59;101318.16;;;3.42;29.53
46846;BME280;33947;46.804;134.252;2022-11-11T08:18:27;101300.75;;;3.52;29.43
46846;BME280;33947;46.804;134.252;2022-11-11T08:21:51;101299.97;;;3.59;29.53
46846;BME280;33947;46.804;134.252;2022-11-11T08:25:14;101277.16;;;3.53;29.21
46846;BME280;33947;46.804;134.252;2022-11-11T08:28:36;101264.28;;;3.73;28.23
46846;BME280;33947;46.804;134.252;2022-11-11T08:31:59;101256.34;;;3.69;29.37
46846;BME280;33947;46.804;134.252;2022-11-11T08:35:23;101229.97;;;3.61;28.71
46846;BME280;33947;46.804;134.252;2022-11-11T08:38:46;101229.09;;;3.60;28.59
46846;BME280;33947;46.804;134.252;2022-11-11T08:42:09;101217.28;;;3.30;28.55
46846;BME280;33947;46.804;134.252;2022-11-11T08:45:32;101230.53;;;3.38;29.23
46846;BME280;33947;46.804;134.252;2022-11-11T08:48:55;101237.69;;;3.47;28.50
46846;BME280;33947;46.804;134.252;2022-11-11T08:52:18;101219.19;;;3.39;29.09
46846;BME280;33947;46.804;134.252;2022-11-11T08:55:41;101230.41;;;3.29;28.89
46846;BME280;33947;46.804;134.252;2022-11-11T08:59:04;101209.38;;;3.26;28.79
46846;BME280;33947;46.804;134.252;2022-11-11T09:02:27;101227.84;;;3.33;29.20
46846;BME280;33947;46.804;134.252;2022-11-11T09:05:51;101218.28;;;3.37;28.76
46846;BME280;33947;46.804;134.252;2022-11-11T09:09:14;101213.13;;;3.45;29.22
46846;BME280;33947;46.804;134.252;2022-11-11T09:12:37;101208.06;;;3.60;29.08
46846;BME280;33947;46.804;134.252;2022-11-11T09:16:00;101185.41;;;3.72;28.52
46846;BME280;33947;46.804;134.252;2022-11-11T09:19:25;101185.56;;;3.81;28.97
46846;BME280;33947;46.804;134.252;2022-11-11T09:22:48;101180.13;;;3.69;29.01
46846;BME280;33947;46.804;134.252;2022-11-11T09:26:11;101173.78;;;3.50;28.83
46846;BME280;33947;46.804;134.252;2022-11-11T09:29:35;101172.28;;;3.70;29.04
46846;BME280;33947;46.804;134.252;2022-11-11T09:33:02;101170.50;;;3.68;28.83
46846;BME280;33947;46.804;134.252;2022-11-11T09:36:26;101167.00;;;3.67;29.21
46846;BME280;33947;46.804;134.252;2022-11-11T09:39:49;101165.28;;;3.72;28.56
46846;BME280;33947;46.804;134.252;2022-11-11T09:50:33;101136.59;;;3.94;28.51
46846;BME280;33947;46.804;134.252;2022-11-11T09:54:13;101117.44;;;4.06;28.94
46846;BME280;33947;46.804;134.252;2022-11-11T09:57:50;101102.50;;;4.02;28.60
46846;BME280;33947;46.804;134.252;2022-11-11T10:01:25;101126.31;;;4.17;28.13
46846;BME280;33947;46.804;134.252;2022-11-11T10:04:59;101117.38;;;3.98;28.89
46846;BME280;33947;46.804;134.252;2022-11-11T10:08:27;101096.28;;;3.92;28.76
46846;BME280;33947;46.804;134.252;2022-11-11T10:15:33;101140.28;;;4.13;28.97
46846;BME280;33947;46.804;134.252;2022-11-11T10:22:41;101117.50;;;4.15;28.84
46846;BME280;33947;46.804;134.252;2022-11-11T10:26:26;101093.78;;;4.04;30.23
46846;BME280;33947;46.804;134.252;2022-11-11T10:29:52;101096.38;;;4.03;31.41
46846;BME280;33947;46.804;134.252;2022-11-11T10:34:04;101093.06;;;4.24;32.71
46846;BME280;33947;46.804;134.252;2022-11-11T10:37:28;101086.00;;;4.17;34.83
46846;BME280;33947;46.804;134.252;2022-11-11T10:40:52;101068.47;;;4.19;35.96
46846;BME280;33947;46.804;134.252;2022-11-11T10:44:21;101072.09;;;4.35;38.55
46846;BME280;33947;46.804;134.252;2022-11-11T10:48:07;101073.06;;;4.45;41.44
46846;BME280;33947;46.804;134.252;2022-11-11T10:51:44;101018.47;;;4.14;42.96
46846;BME280;33947;46.804;134.252;2022-11-11T10:55:13;101045.75;;;4.30;45.44
46846;BME280;33947;46.804;134.252;2022-11-11T10:58:47;101054.88;;;4.90;47.73
46846;BME280;33947;46.804;134.252;2022-11-11T11:06:02;101018.59;;;4.31;48.46
46846;BME280;33947;46.804;134.252;2022-11-11T11:09:44;101010.56;;;4.10;48.26
46846;BME280;33947;46.804;134.252;2022-11-11T11:16:51;101012.25;;;4.03;47.24
46846;BME280;33947;46.804;134.252;2022-11-11T11:20:19;101017.72;;;4.32;49.16
46846;BME280;33947;46.804;134.252;2022-11-11T11:23:44;100966.50;;;3.78;50.85
46846;BME280;33947;46.804;134.252;2022-11-11T11:27:08;101002.53;;;3.93;51.90
46846;BME280;33947;46.804;134.252;2022-11-11T11:30:31;101000.06;;;4.14;53.62
46846;BME280;33947;46.804;134.252;2022-11-11T11:33:55;100971.22;;;4.24;55.97
46846;BME280;33947;46.804;134.252;2022-11-11T11:37:20;100968.69;;;4.41;57.34
46846;BME280;33947;46.804;134.252;2022-11-11T11:40:53;100972.25;;;4.55;58.50
46846;BME280;33947;46.804;134.252;2022-11-11T11:44:25;100969.75;;;4.89;61.84
46846;BME280;33947;46.804;134.252;2022-11-11T11:59:19;100928.44;;;4.73;69.03
46846;BME280;33947;46.804;134.252;2022-11-11T12:10:47;100927.56;;;4.60;68.57
46846;BME280;33947;46.804;134.252;2022-11-11T12:17:23;100921.50;;;4.87;71.44
46846;BME280;33947;46.804;134.252;2022-11-11T12:21:07;100914.53;;;5.20;68.77
46846;BME280;33947;46.804;134.252;2022-11-11T12:36:19;100905.78;;;5.25;69.02
46846;BME280;33947;46.804;134.252;2022-11-11T12:40:26;100905.78;;;5.21;71.09
46846;BME280;33947;46.804;134.252;2022-11-11T12:44:11;100912.81;;;5.54;69.67
46846;BME280;33947;46.804;134.252;2022-11-11T13:10:22;100874.91;;;6.21;69.66
46846;BME280;33947;46.804;134.252;2022-11-11T13:14:22;100874.06;;;6.13;71.52
46846;BME280;33947;46.804;134.252;2022-11-11T13:17:36;100858.19;;;6.21;69.63
46846;BME280;33947;46.804;134.252;2022-11-11T13:21:05;100859.03;;;6.39;69.54
46846;BME280;33947;46.804;134.252;2022-11-11T13:24:29;100855.53;;;6.29;69.74
46846;BME280;33947;46.804;134.252;2022-11-11T13:28:12;100842.38;;;6.27;70.71
46846;BME280;33947;46.804;134.252;2022-11-11T13:31:39;100844.97;;;6.33;70.29
46846;BME280;33947;46.804;134.252;2022-11-11T13:35:33;100840.59;;;6.28;72.76
46846;BME280;33947;46.804;134.252;2022-11-11T13:38:59;100831.88;;;6.10;71.70
46846;BME280;33947;46.804;134.252;2022-11-11T13:42:27;100844.97;;;6.32;70.55
46846;BME280;33947;46.804;134.252;2022-11-11T13:45:53;100835.28;;;6.34;69.60
46846;BME280;33947;46.804;134.252;2022-11-11T13:49:28;100832.59;;;6.45;70.52
46846;BME280;33947;46.804;134.252;2022-11-11T13:53:03;100819.44;;;6.42;70.11
46846;BME280;33947;46.804;134.252;2022-11-11T14:00:21;100795.72;;;6.34;70.60
46846;BME280;33947;46.804;134.252;2022-11-11T14:07:08;100809.75;;;6.44;70.41
46846;BME280;33947;46.804;134.252;2022-11-11T14:17:43;100794.91;;;6.22;71.46
46846;BME280;33947;46.804;134.252;2022-11-11T14:21:07;100798.47;;;6.03;75.23
46846;BME280;33947;46.804;134.252;2022-11-11T14:24:47;100799.38;;;6.03;76.64
46846;BME280;33947;46.804;134.252;2022-11-11T14:28:29;100799.38;;;6.03;77.16
46846;BME280;33947;46.804;134.252;2022-11-11T14:32:51;100796.78;;;5.86;78.06
46846;BME280;33947;46.804;134.252;2022-11-11T14:39:51;100795.91;;;5.73;79.09
46846;BME280;33947;46.804;134.252;2022-11-11T14:47:17;100799.44;;;5.80;78.73
46846;BME280;33947;46.804;134.252;2022-11-11T14:50:41;100800.38;;;5.56;83.74
46846;BME280;33947;46.804;134.252;2022-11-11T14:54:33;100811.78;;;5.56;83.34
46846;BME280;33947;46.804;134.252;2022-11-11T15:01:30;100810.03;;;5.55;79.86
46846;BME280;33947;46.804;134.252;2022-11-11T15:04:57;100809.16;;;5.55;80.83
46846;BME280;33947;46.804;134.252;2022-11-11T15:08:25;100818.81;;;5.40;83.29
46846;BME280;33947;46.804;134.252;2022-11-11T15:22:41;100812.66;;;5.60;79.62
46846;BME280;33947;46.804;134.252;2022-11-11T15:37:17;100824.06;;;5.54;80.45
46846;BME280;33947;46.804;134.252;2022-11-11T15:40:46;100824.97;;;5.33;84.89
46846;BME280;33947;46.804;134.252;2022-11-11T15:44:20;100825.84;;;5.38;84.02
46846;BME280;33947;46.804;134.252;2022-11-11T15:47:44;100826.72;;;5.48;82.00
46846;BME280;33947;46.804;134.252;2022-11-11T15:51:25;100835.50;;;5.45;86.36
46846;BME280;33947;46.804;134.252;2022-11-11T15:54:49;100838.13;;;5.45;83.86
46846;BME280;33947;46.804;134.252;2022-11-11T15:58:15;100843.41;;;5.48;83.20
46846;BME280;33947;46.804;134.252;2022-11-11T16:01:39;100847.81;;;5.43;82.77
46846;BME280;33947;46.804;134.252;2022-11-11T16:05:07;100825.84;;;5.27;83.56
46846;BME280;33947;46.804;134.252;2022-11-11T16:08:35;100838.16;;;5.17;84.17
46846;BME280;33947;46.804;134.252;2022-11-11T16:11:58;100839.94;;;5.32;82.78
46846;BME280;33947;46.804;134.252;2022-11-11T16:19:19;100860.13;;;5.22;86.64
46846;BME280;33947;46.804;134.252;2022-11-11T16:22:45;100861.88;;;5.17;86.11
46846;BME280;33947;46.804;134.252;2022-11-11T16:26:11;100858.38;;;5.12;85.69
46846;BME280;33947;46.804;134.252;2022-11-11T16:29:39;100885.56;;;5.27;83.52
46846;BME280;33947;46.804;134.252;2022-11-11T16:33:04;100874.16;;;5.15;84.06
46846;BME280;33947;46.804;134.252;2022-11-11T16:37:00;100860.09;;;4.99;84.62
46846;BME280;33947;46.804;134.252;2022-11-11T16:43:55;100882.91;;;4.99;85.92
46846;BME280;33947;46.804;134.252;2022-11-11T16:50:57;100903.97;;;4.92;86.48
46846;BME280;33947;46.804;134.252;2022-11-11T16:54:26;100924.13;;;4.89;88.35
46846;BME280;33947;46.804;134.252;2022-11-11T16:57:52;100930.25;;;4.88;86.92
46846;BME280;33947;46.804;134.252;2022-11-11T17:01:15;100926.75;;;4.75;89.80
46846;BME280;33947;46.804;134.252;2022-11-11T17:04:46;100921.41;;;4.66;91.07
46846;BME280;33947;46.804;134.252;2022-11-11T17:08:35;100936.34;;;4.65;91.89
46846;BME280;33947;46.804;134.252;2022-11-11T17:11:58;100934.56;;;4.62;91.99
46846;BME280;33947;46.804;134.252;2022-11-11T17:15:21;100939.03;;;4.85;87.98
46846;BME280;33947;46.804;134.252;2022-11-11T17:18:44;100953.94;;;4.88;88.16
46846;BME280;33947;46.804;134.252;2022-11-11T17:22:10;100948.66;;;4.78;88.87
46846;BME280;33947;46.804;134.252;2022-11-11T17:25:33;100938.91;;;4.51;91.95
46846;BME280;33947;46.804;134.252;2022-11-11T17:28:57;100943.31;;;4.58;91.74
46846;BME280;33947;46.804;134.252;2022-11-11T17:32:19;100960.94;;;4.70;89.10
46846;BME280;33947;46.804;134.252;2022-11-11T17:35:50;100959.22;;;4.88;87.22
46846;BME280;33947;46.804;134.252;2022-11-11T17:39:13;100970.63;;;4.90;85.60
46846;BME280;33947;46.804;134.252;2022-11-11T17:42:36;100969.78;;;4.94;85.21
46846;BME280;33947;46.804;134.252;2022-11-11T17:46:03;100972.38;;;4.82;87.10
46846;BME280;33947;46.804;134.252;2022-11-11T17:49:26;100971.44;;;4.69;87.66
46846;BME280;33947;46.804;134.252;2022-11-11T17:53:09;100982.94;;;4.89;86.48
46846;BME280;33947;46.804;134.252;2022-11-11T17:56:37;100988.16;;;4.74;85.31
46846;BME280;33947;46.804;134.252;2022-11-11T18:00:00;101008.13;;;4.42;86.92
46846;BME280;33947;46.804;134.252;2022-11-11T18:03:23;101010.75;;;4.42;86.17
46846;BME280;33947;46.804;134.252;2022-11-11T18:06:47;101013.34;;;4.34;85.75
46846;BME280;33947;46.804;134.252;2022-11-11T18:10:11;101008.13;;;4.39;84.95
46846;BME280;33947;46.804;134.252;2022-11-11T18:13:36;101001.81;;;4.15;83.59
46846;BME280;33947;46.804;134.252;2022-11-11T18:16:59;101006.13;;;3.99;83.93
46846;BME280;33947;46.804;134.252;2022-11-11T18:20:22;101001.59;;;3.86;82.98
46846;BME280;33947;46.804;134.252;2022-11-11T18:23:45;101020.78;;;3.74;83.97
46846;BME280;33947;46.804;134.252;2022-11-11T18:27:12;101015.63;;;3.85;83.40
46846;BME280;33947;46.804;134.252;2022-11-11T18:30:35;101023.66;;;4.00;82.71
46846;BME280;33947;46.804;134.252;2022-11-11T18:33:58;101007.81;;;3.96;81.44
46846;BME280;33947;46.804;134.252;2022-11-11T18:37:21;101034.16;;;4.02;81.11
46846;BME280;33947;46.804;134.252;2022-11-11T18:40:44;101017.31;;;3.78;81.77
46846;BME280;33947;46.804;134.252;2022-11-11T18:44:07;101015.47;;;3.66;82.73
46846;BME280;33947;46.804;134.252;2022-11-11T18:47:30;101028.75;;;3.85;81.19
46846;BME280;33947;46.804;134.252;2022-11-11T18:50:53;101019.13;;;3.87;81.24
46846;BME280;33947;46.804;134.252;2022-11-11T18:54:16;101020.69;;;3.63;81.07
46846;BME280;33947;46.804;134.252;2022-11-11T18:57:46;101010.88;;;3.46;81.63
46846;BME280;33947;46.804;134.252;2022-11-11T19:01:13;101035.41;;;3.45;82.29
46846;BME280;33947;46.804;134.252;2022-11-11T19:04:44;101037.03;;;3.36;82.67
46846;BME280;33947;46.804;134.252;2022-11-11T19:08:07;101042.25;;;3.32;82.23
46846;BME280;33947;46.804;134.252;2022-11-11T19:11:30;101052.88;;;3.42;81.11
46846;BME280;33947;46.804;134.252;2022-11-11T19:14:55;101060.50;;;3.22;80.72
46846;BME280;33947;46.804;134.252;2022-11-11T19:18:18;101063.28;;;3.36;80.95
46846;BME280;33947;46.804;134.252;2022-11-11T19:21:42;101082.13;;;3.00;79.95
46846;BME280;33947;46.804;134.252;2022-11-11T19:25:05;101038.16;;;2.82;80.65
46846;BME280;33947;46.804;134.252;2022-11-11T19:28:28;101080.06;;;2.76;80.56
46846;BME280;33947;46.804;134.252;2022-11-11T19:31:52;101049.31;;;2.66;80.23
46846;BME280;33947;46.804;134.252;2022-11-11T19:35:15;101081.53;;;2.57;80.92
46846;BME280;33947;46.804;134.252;2022-11-11T19:38:38;101071.94;;;2.57;80.41
46846;BME280;33947;46.804;134.252;2022-11-11T19:42:01;101084.81;;;2.40;80.27
46846;BME280;33947;46.804;134.252;2022-11-11T19:45:24;101098.16;;;2.57;80.18
46846;BME280;33947;46.804;134.252;2022-11-11T19:48:48;101106.28;;;2.76;79.65
46846;BME280;33947;46.804;134.252;2022-11-11T19:52:14;101104.09;;;2.45;80.70
46846;BME280;33947;46.804;134.252;2022-11-11T19:55:37;101104.50;;;2.16;80.86
46846;BME280;33947;46.804;134.252;2022-11-11T19:59:00;101096.25;;;1.93;82.21
46846;BME280;33947;46.804;134.252;2022-11-11T20:02:24;101119.19;;;2.07;80.86
46846;BME280;33947;46.804;134.252;2022-11-11T20:05:47;101126.94;;;1.99;81.54
46846;BME280;33947;46.804;134.252;2022-11-11T20:09:10;101115.78;;;2.11;80.89
46846;BME280;33947;46.804;134.252;2022-11-11T20:12:34;101112.78;;;1.89;80.64